CheckWX is a tool to help pilots better visualize weather data.  It is not intended as a substitute for an official pre-flight weather briefing.

01:45:59 UTC

LGSK TAF
Skiathos Island National Airport
Skiathos, Greece
TAF LGSK 232300Z 2400/2409 04020G30KT 7000 SCT008 BKN020 PROB40 TEMPO 2400/2409 5000 SNRA SCT005 OVC020 PROB30 TEMPO 2400/2403 3000 SN BKN005 OVC020

Feb-24@
00:00 UTC

Feb-24 @ 00:00 UTC

Feb-24@
09:00 UTC

Feb-24 @ 09:00 UTC

TAF LGSK 232300Z 2400/2409 04020G30KT 7000 SCT008 BKN020
Wind
  • 040° at 20 KTS
  • {Gusting to 30 KTS
Cloud Levels
  • Scattered at 800' AGL
  • Broken at 2,000' AGL

Feb-24@
00:00 UTC

Feb-24 @ 00:00 UTC

Feb-24@
03:00 UTC

Feb-24 @ 03:00 UTC

PROB30 TEMPO 2400/2403 3000 SN BKN005 OVC020

Temporary - 30% Likelihood

Temporary - 30% Likelihood during this time.

Conditions
Snow
Cloud Levels
  • Broken at 500' AGL
  • Overcast at 2,000' AGL

Feb-24@
00:00 UTC

Feb-24 @ 00:00 UTC

Feb-24@
09:00 UTC

Feb-24 @ 09:00 UTC

PROB40 TEMPO 2400/2409 5000 SNRA SCT005 OVC020

Temporary - 40% Likelihood

Temporary - 40% Likelihood during this time.

Conditions
Snow, Rain
Cloud Levels
  • Scattered at 500' AGL
  • Overcast at 2,000' AGL